Pago Pago, AS

10:52 PM SST on September 01, 2015 (GMT -1100)
Kona International At Keahole | | Change Station
CLOSE
Current Station
Airport
Location: Keahole Point,
Elevation: 43 ft
Nearby Weather Stations

Elev 43 ft 19.74 °N, 156.05 °W | Updated 59 minutes ago

Mostly Cloudy
Mostly Cloudy
82 °F
Feels Like 89 °F
N
15
Wind Variable Wind from SSE

Today
High -- | Low -- °F
--% Chance of Precip.
Yesterday
High -- | Low -- °F
Precip. -- in
6:27 AM 6:18 PM
Waning Gibbous, 81% visible
Pressure 29.88 in
Visibility 8.0 miles
Clouds Few 2500 ft
Scattered Clouds 4000 ft
Mostly Cloudy 4600 ft
Heat Index 89 °F
Dew Point 76 °F
Humidity 82%
Rainfall 0.08 in
Snow Depth Not available.
UV 0 out of 12
Pollen Not available.
Air Quality Not available.
Flu Activity Not available.
METAR PHKO 020853Z AUTO 15013KT 8SM FEW025 SCT040 BKN046 28/24 A2988 RMK AO2 RAB0757E28 SLP117 P0008 60008 T02780244 51014 TSNO
Pressure 29.88 in
Visibility 8.0 miles
Clouds Few 2500 ft
Scattered Clouds 4000 ft
Mostly Cloudy 4600 ft
Heat Index 89 °F
Dew Point 76 °F
Humidity 82%
Rainfall 0.08 in
Snow Depth Not available.
UV 0 out of 12
Pollen Not available.
Air Quality Not available.
Flu Activity Not available.
METAR PHKO 020853Z AUTO 15013KT 8SM FEW025 SCT040 BKN046 28/24 A2988 RMK AO2 RAB0757E28 SLP117 P0008 60008 T02780244 51014 TSNO

10-Day Weather Forecast

×

Almanac

Astronomy

Sep. 01, 2015 Rise Set
Actual Time
Civil Twilight
Nautical Twilight
Astronomical Twilight
Moon
Length of Visible Light
Length of Day
Tomorrow will be .
, % of the Moon is Illuminated

Today's Extremes

State Highs State Lows

Community

WunderPhotos

Upload Photos

1,851,731 photos uploaded!

WunderBlogs® & News

Nearby

Air Quality

  Air Quality AQ Index Pollutant
Not available.

Snow Depth

Station Depth Elevation

Earthquake Activity

City Distance Mag. Time & Date
Minimum magnitude displayed is 2.5.

Coastal Water Temperatures

Place Temperature

Stations

Nearby Weather Stations

Station Location Temp. Windchill Dew Point Humidity Wind Precip. Elev Updated Type